createdAt,value
2019-05-28T00:02:20.967Z,12.80
2019-05-28T00:05:08.995Z,12.70
2019-05-28T00:07:56.769Z,12.70
2019-05-28T00:10:44.609Z,12.30
2019-05-28T00:13:32.285Z,12.50
2019-05-28T00:16:20.135Z,12.50
2019-05-28T00:19:08.311Z,12.40
2019-05-28T00:21:56.285Z,12.40
2019-05-28T00:24:44.429Z,12.60
2019-05-28T00:27:32.495Z,12.60
2019-05-28T00:30:21.119Z,12.60
2019-05-28T00:33:09.261Z,12.50
2019-05-28T00:35:57.307Z,12.40
2019-05-28T00:38:44.760Z,12.30
2019-05-28T00:41:32.538Z,12.30
2019-05-28T00:44:20.278Z,12.30
2019-05-28T00:47:08.612Z,12.30
2019-05-28T00:49:56.698Z,12.20
2019-05-28T00:52:44.512Z,12.10
2019-05-28T00:55:32.485Z,12.30
2019-05-28T00:58:20.670Z,12.30
2019-05-28T01:01:08.504Z,12.20
2019-05-28T01:03:56.769Z,12.30
2019-05-28T01:06:44.350Z,12.20
2019-05-28T01:09:32.436Z,12.20
2019-05-28T01:12:20.180Z,12.30
2019-05-28T01:15:09.247Z,12.30
2019-05-28T01:17:57.381Z,12.20
2019-05-28T01:20:44.873Z,12.30
2019-05-28T01:23:32.182Z,12.20
2019-05-28T01:26:20.297Z,12.10
2019-05-28T01:29:08.166Z,12.10
2019-05-28T01:31:56.093Z,12.30
2019-05-28T01:34:43.647Z,12.30
2019-05-28T01:37:31.845Z,12.40
2019-05-28T01:40:23.053Z,12.30
2019-05-28T01:43:08.853Z,12.40
2019-05-28T01:45:56.550Z,12.40
2019-05-28T01:48:44.169Z,12.40
2019-05-28T01:51:31.957Z,12.30
2019-05-28T01:54:19.436Z,12.20
2019-05-28T01:57:07.258Z,12.20
2019-05-28T01:59:54.433Z,12.30
2019-05-28T02:02:42.183Z,12.40
2019-05-28T02:05:30.029Z,12.30
2019-05-28T02:08:17.725Z,12.30
2019-05-28T02:11:05.309Z,12.30
2019-05-28T02:13:53.869Z,12.30
2019-05-28T02:16:41.625Z,12.20
2019-05-28T02:19:29.203Z,12.10
2019-05-28T02:22:17.151Z,12.20
2019-05-28T02:25:06.917Z,12.00
2019-05-28T02:27:54.421Z,12.00
2019-05-28T02:30:41.776Z,12.00
2019-05-28T02:33:29.365Z,11.90
2019-05-28T02:36:17.083Z,11.90
2019-05-28T02:39:07.202Z,11.90
2019-05-28T02:41:55.265Z,11.80
2019-05-28T02:44:43.048Z,11.90
2019-05-28T02:47:30.930Z,12.00
2019-05-28T02:50:23.685Z,12.00
2019-05-28T02:53:11.339Z,12.00
2019-05-28T02:55:59.413Z,12.00
2019-05-28T02:58:49.845Z,12.00
2019-05-28T03:01:44.426Z,12.00
2019-05-28T03:04:30.138Z,11.90
2019-05-28T03:07:18.969Z,11.80
2019-05-28T03:10:06.854Z,11.70
2019-05-28T03:12:54.958Z,11.70
2019-05-28T03:15:46.071Z,11.70
2019-05-28T03:18:37.347Z,11.60
2019-05-28T03:21:27.549Z,11.60
2019-05-28T03:24:17.651Z,11.60
2019-05-28T03:27:05.665Z,11.60
2019-05-28T03:29:53.829Z,11.70
2019-05-28T03:32:42.363Z,11.70
2019-05-28T03:35:30.542Z,11.70
2019-05-28T03:38:20.485Z,11.80
2019-05-28T03:41:08.380Z,11.80
2019-05-28T03:43:56.254Z,11.80
2019-05-28T03:46:44.044Z,11.90
2019-05-28T03:49:32.348Z,11.90
2019-05-28T03:52:20.227Z,11.90
2019-05-28T03:55:08.403Z,11.80
2019-05-28T03:57:56.544Z,11.70
2019-05-28T04:00:44.659Z,11.70
2019-05-28T04:03:32.765Z,11.70
2019-05-28T04:06:20.266Z,11.80
2019-05-28T04:09:09.297Z,11.70
2019-05-28T04:11:57.032Z,11.80
2019-05-28T04:14:44.800Z,11.80
2019-05-28T04:17:32.274Z,11.80
2019-05-28T04:20:20.193Z,11.80
2019-05-28T04:23:14.929Z,11.70
2019-05-28T04:26:02.932Z,11.60
2019-05-28T04:28:51.462Z,11.60
2019-05-28T04:31:38.841Z,11.60
2019-05-28T04:34:26.552Z,11.70
2019-05-28T04:37:14.651Z,11.60
2019-05-28T04:40:03.361Z,11.70
2019-05-28T04:42:50.914Z,11.80
2019-05-28T04:45:39.321Z,11.90
2019-05-28T04:48:27.100Z,11.70
2019-05-28T04:51:15.614Z,11.70
2019-05-28T04:54:03.101Z,11.90
2019-05-28T04:56:50.534Z,11.90
2019-05-28T04:59:38.885Z,12.00
2019-05-28T05:02:26.629Z,12.00
2019-05-28T05:05:15.060Z,12.00
2019-05-28T05:08:02.901Z,12.00
2019-05-28T05:10:50.752Z,11.90
2019-05-28T05:13:38.378Z,12.00
2019-05-28T05:16:26.688Z,12.10
2019-05-28T05:19:14.829Z,12.10
2019-05-28T05:22:02.943Z,12.10
2019-05-28T05:24:51.154Z,12.20
2019-05-28T05:27:38.976Z,12.30
2019-05-28T05:30:26.507Z,12.30
2019-05-28T05:33:20.285Z,12.30
2019-05-28T05:36:03.933Z,12.40
2019-05-28T05:38:51.405Z,12.40
2019-05-28T05:41:39.539Z,12.40
2019-05-28T05:44:27.265Z,12.30
2019-05-28T05:47:14.878Z,12.40
2019-05-28T05:50:02.800Z,12.50
2019-05-28T05:52:50.661Z,12.60
2019-05-28T05:55:38.533Z,12.60
2019-05-28T05:58:26.443Z,12.60
2019-05-28T06:01:14.535Z,12.60
2019-05-28T06:04:02.297Z,12.60
2019-05-28T06:06:50.119Z,12.60
2019-05-28T06:09:38.180Z,12.60
2019-05-28T06:12:25.925Z,12.60
2019-05-28T06:15:13.456Z,12.50
2019-05-28T06:18:01.045Z,12.50
2019-05-28T06:20:48.848Z,12.60
2019-05-28T06:23:36.421Z,12.60
2019-05-28T06:26:23.711Z,12.60
2019-05-28T06:29:11.014Z,12.70
2019-05-28T06:31:58.597Z,12.70
2019-05-28T06:34:46.507Z,12.70
2019-05-28T06:37:33.802Z,12.80
2019-05-28T06:40:21.626Z,12.80
2019-05-28T06:43:09.229Z,12.80
2019-05-28T06:45:56.938Z,12.80
2019-05-28T06:48:44.988Z,12.70
2019-05-28T06:51:32.887Z,12.70
2019-05-28T06:54:20.732Z,12.70
2019-05-28T06:57:22.237Z,12.60
2019-05-28T06:59:58.369Z,12.70
2019-05-28T07:02:46.321Z,12.70
2019-05-28T07:05:34.038Z,12.70
2019-05-28T07:08:21.877Z,12.70
2019-05-28T07:11:09.916Z,12.70
2019-05-28T07:13:57.975Z,12.80
2019-05-28T07:16:53.352Z,12.80
2019-05-28T07:19:34.942Z,12.70
2019-05-28T07:22:23.123Z,12.80
2019-05-28T07:25:10.995Z,12.80
2019-05-28T07:28:10.609Z,12.80
2019-05-28T07:30:48.540Z,12.90
2019-05-28T07:33:36.240Z,12.90
2019-05-28T07:36:24.219Z,12.90
2019-05-28T07:39:12.415Z,12.90
2019-05-28T07:42:00.386Z,12.90
2019-05-28T07:44:48.422Z,12.90
2019-05-28T07:47:35.948Z,12.90
2019-05-28T07:50:23.750Z,12.90
2019-05-28T07:53:11.686Z,12.90
2019-05-28T07:55:59.325Z,12.90
2019-05-28T07:58:47.428Z,13.00
2019-05-28T08:01:35.607Z,13.00
2019-05-28T08:04:23.314Z,13.00
2019-05-28T08:07:11.226Z,13.00
2019-05-28T08:09:59.178Z,13.00
2019-05-28T08:12:47.477Z,13.00
2019-05-28T08:15:35.572Z,13.00
2019-05-28T08:18:23.662Z,13.00
2019-05-28T08:21:11.592Z,13.10
2019-05-28T08:23:59.738Z,13.10
2019-05-28T08:26:47.327Z,13.10
2019-05-28T08:29:34.738Z,13.20
2019-05-28T08:32:22.509Z,13.20
2019-05-28T08:35:10.161Z,13.20
2019-05-28T08:37:58.253Z,13.20
2019-05-28T08:40:46.301Z,13.20
2019-05-28T08:43:34.157Z,13.20
2019-05-28T08:46:22.111Z,13.30
2019-05-28T08:49:10.349Z,13.40
2019-05-28T08:51:58.478Z,13.30
2019-05-28T08:54:46.519Z,13.40
2019-05-28T08:57:34.539Z,13.50
2019-05-28T09:00:37.388Z,13.60
2019-05-28T09:03:24.958Z,13.20
2019-05-28T09:06:12.459Z,13.10
2019-05-28T09:09:00.365Z,12.90
2019-05-28T09:11:47.817Z,12.90
2019-05-28T09:14:54.892Z,12.60
2019-05-28T09:17:25.397Z,12.40
2019-05-28T09:20:13.806Z,12.30
2019-05-28T09:23:01.786Z,12.30
2019-05-28T09:25:49.582Z,12.30
2019-05-28T09:28:37.329Z,12.40
2019-05-28T09:31:25.375Z,12.50
2019-05-28T09:34:13.413Z,12.60
2019-05-28T09:37:01.453Z,12.50
2019-05-28T09:39:49.430Z,12.40
2019-05-28T09:42:37.318Z,12.40
2019-05-28T09:45:25.037Z,12.40
2019-05-28T09:48:13.065Z,12.30
2019-05-28T09:51:01.142Z,12.20
2019-05-28T09:53:48.955Z,12.20
2019-05-28T09:56:36.986Z,12.30
2019-05-28T09:59:40.282Z,12.40
2019-05-28T10:02:14.563Z,12.50
2019-05-28T10:05:02.550Z,12.60
2019-05-28T10:07:50.605Z,12.60
2019-05-28T10:10:38.169Z,12.60
2019-05-28T10:13:37.955Z,12.60
2019-05-28T10:16:15.426Z,12.50
2019-05-28T10:19:03.340Z,12.50
2019-05-28T10:21:51.033Z,12.50
2019-05-28T10:24:38.627Z,12.60
2019-05-28T10:27:27.040Z,12.60
2019-05-28T10:30:15.915Z,12.70
2019-05-28T10:33:03.919Z,12.80
2019-05-28T10:35:52.505Z,12.90
2019-05-28T10:38:40.390Z,12.90
2019-05-28T10:41:28.721Z,13.00
2019-05-28T10:44:16.711Z,13.10
2019-05-28T10:47:04.202Z,13.10
2019-05-28T10:49:52.101Z,12.90
2019-05-28T10:52:39.849Z,13.00
2019-05-28T10:55:27.925Z,13.20
2019-05-28T10:58:15.689Z,13.20
2019-05-28T11:01:03.421Z,13.20
2019-05-28T11:03:51.217Z,13.20
2019-05-28T11:06:51.573Z,13.20
2019-05-28T11:09:28.766Z,13.10
2019-05-28T11:12:16.542Z,13.10
2019-05-28T11:15:05.848Z,13.20
2019-05-28T11:17:53.445Z,13.10
2019-05-28T11:20:41.589Z,13.20
2019-05-28T11:23:29.514Z,13.10
2019-05-28T11:26:18.196Z,12.90
2019-05-28T11:29:06.495Z,12.70
2019-05-28T11:31:54.549Z,12.80
2019-05-28T11:34:42.049Z,12.80
2019-05-28T11:37:30.082Z,12.80
2019-05-28T11:40:18.959Z,12.90
2019-05-28T11:43:07.280Z,13.10
2019-05-28T11:45:55.217Z,13.20
2019-05-28T11:48:43.045Z,13.40
2019-05-28T11:51:31.253Z,13.40
2019-05-28T11:54:19.308Z,13.20
2019-05-28T11:57:07.353Z,13.10
2019-05-28T11:59:55.387Z,12.80
2019-05-28T12:02:43.373Z,12.50
2019-05-28T12:05:31.410Z,12.20
2019-05-28T12:08:19.837Z,12.10
2019-05-28T12:11:07.108Z,12.00
2019-05-28T12:13:55.351Z,11.90
2019-05-28T12:16:43.176Z,11.90
2019-05-28T12:19:31.166Z,11.90
2019-05-28T12:22:18.926Z,11.90
2019-05-28T12:25:07.429Z,11.80
2019-05-28T12:27:55.549Z,11.80
2019-05-28T12:30:43.630Z,11.80
2019-05-28T12:33:31.698Z,11.80
2019-05-28T12:36:19.741Z,11.80
2019-05-28T12:39:08.779Z,11.80
2019-05-28T12:42:03.099Z,11.90
2019-05-28T12:44:46.230Z,11.90
2019-05-28T12:47:34.030Z,11.90
2019-05-28T12:50:24.297Z,11.70
2019-05-28T12:53:12.062Z,11.60
2019-05-28T12:55:59.874Z,11.70
2019-05-28T12:58:47.973Z,11.60
2019-05-28T13:01:36.253Z,11.60
2019-05-28T13:04:23.985Z,11.70
2019-05-28T13:07:11.639Z,11.70
2019-05-28T13:09:59.710Z,11.60
2019-05-28T13:12:47.632Z,11.60
2019-05-28T13:15:35.628Z,11.50
2019-05-28T13:18:23.678Z,11.30
2019-05-28T13:21:11.559Z,11.20
2019-05-28T13:23:59.570Z,11.20
2019-05-28T13:26:47.737Z,11.30
2019-05-28T13:29:35.487Z,11.40
2019-05-28T13:32:23.521Z,11.50
2019-05-28T13:35:13.577Z,11.60
2019-05-28T13:38:01.630Z,11.50
2019-05-28T13:40:49.681Z,11.50
2019-05-28T13:43:37.173Z,11.70
2019-05-28T13:46:25.076Z,11.80
2019-05-28T13:49:13.031Z,12.00
2019-05-28T13:52:11.425Z,12.00
2019-05-28T13:54:50.844Z,12.20
2019-05-28T13:57:39.672Z,12.20
2019-05-28T14:00:27.905Z,12.40
2019-05-28T14:03:16.264Z,12.50
2019-05-28T14:06:04.488Z,12.60
2019-05-28T14:08:52.356Z,12.50
2019-05-28T14:11:40.197Z,12.30
2019-05-28T14:14:28.242Z,12.10
2019-05-28T14:17:16.103Z,12.10
2019-05-28T14:20:04.889Z,12.00
2019-05-28T14:22:53.069Z,12.10
2019-05-28T14:25:41.450Z,11.80
2019-05-28T14:28:28.904Z,11.70
2019-05-28T14:31:16.894Z,11.70
2019-05-28T14:34:04.641Z,11.70
2019-05-28T14:36:52.517Z,11.70
2019-05-28T14:39:41.530Z,11.50
2019-05-28T14:42:29.587Z,11.50
2019-05-28T14:45:18.046Z,11.60
2019-05-28T14:48:06.517Z,11.60
2019-05-28T14:50:54.348Z,11.70
2019-05-28T14:53:42.103Z,11.70
2019-05-28T14:56:30.232Z,11.60
2019-05-28T14:59:18.164Z,11.70
2019-05-28T15:02:05.586Z,11.70
2019-05-28T15:04:53.739Z,11.70
2019-05-28T15:07:41.977Z,11.70
2019-05-28T15:10:30.344Z,11.70
2019-05-28T15:13:18.174Z,11.90
2019-05-28T15:16:06.080Z,11.90
2019-05-28T15:18:54.118Z,11.90
2019-05-28T15:21:42.233Z,12.00
2019-05-28T15:24:30.410Z,12.00
2019-05-28T15:27:18.303Z,12.20
2019-05-28T15:30:06.914Z,12.00
2019-05-28T15:32:54.713Z,12.00
2019-05-28T15:35:42.934Z,12.00
2019-05-28T15:38:30.831Z,11.90
2019-05-28T15:41:18.871Z,11.90
2019-05-28T15:44:06.688Z,11.70
2019-05-28T15:46:54.939Z,11.70
2019-05-28T15:49:42.283Z,11.70
2019-05-28T15:52:30.043Z,11.50
2019-05-28T15:55:18.048Z,11.50
2019-05-28T15:58:05.869Z,11.40
2019-05-28T16:00:53.951Z,11.40
2019-05-28T16:03:41.833Z,11.30
2019-05-28T16:06:29.946Z,11.10
2019-05-28T16:09:17.449Z,11.00
2019-05-28T16:12:05.055Z,10.90
2019-05-28T16:14:53.178Z,10.90
2019-05-28T16:17:41.151Z,10.90
2019-05-28T16:20:29.322Z,10.80
2019-05-28T16:23:17.043Z,10.80
2019-05-28T16:26:04.945Z,10.80
2019-05-28T16:28:52.821Z,10.70
2019-05-28T16:31:40.598Z,10.80
2019-05-28T16:34:28.584Z,10.80
2019-05-28T16:37:16.065Z,10.90
2019-05-28T16:40:14.838Z,11.10
2019-05-28T16:42:53.857Z,11.20
2019-05-28T16:45:41.726Z,11.30
2019-05-28T16:48:29.450Z,11.40
2019-05-28T16:51:17.510Z,11.40
2019-05-28T16:54:18.596Z,11.50
2019-05-28T16:56:55.139Z,11.60
2019-05-28T16:59:43.229Z,11.50
2019-05-28T17:02:30.918Z,11.40
2019-05-28T17:05:18.934Z,11.30
2019-05-28T17:08:06.961Z,11.40
2019-05-28T17:10:55.046Z,11.50
2019-05-28T17:13:47.710Z,11.50
2019-05-28T17:16:32.754Z,11.30
2019-05-28T17:19:20.980Z,11.20
2019-05-28T17:22:09.150Z,11.20
2019-05-28T17:24:56.710Z,11.30
2019-05-28T17:27:44.812Z,11.40
2019-05-28T17:30:33.021Z,11.40
2019-05-28T17:33:20.962Z,11.40
2019-05-28T17:36:08.829Z,11.40
2019-05-28T17:38:56.667Z,11.50
2019-05-28T17:41:44.295Z,11.50
2019-05-28T17:44:32.182Z,11.50
2019-05-28T17:47:20.405Z,11.60
2019-05-28T17:50:11.296Z,11.30
2019-05-28T17:52:59.542Z,11.30
2019-05-28T17:55:47.484Z,11.30
2019-05-28T17:58:35.472Z,11.30
2019-05-28T18:01:23.538Z,11.40
2019-05-28T18:04:11.324Z,11.40
2019-05-28T18:06:58.994Z,11.30
2019-05-28T18:09:46.686Z,11.10
2019-05-28T18:12:34.667Z,11.10
2019-05-28T18:15:22.710Z,11.00
2019-05-28T18:18:10.724Z,11.10
2019-05-28T18:20:59.101Z,11.10
2019-05-28T18:23:47.444Z,11.10
2019-05-28T18:26:35.632Z,10.90
2019-05-28T18:29:23.597Z,10.90
2019-05-28T18:32:11.943Z,10.70
2019-05-28T18:34:59.532Z,10.60
2019-05-28T18:37:47.399Z,10.40
2019-05-28T18:40:35.438Z,10.20
2019-05-28T18:43:23.390Z,10.20
2019-05-28T18:46:15.297Z,10.10
2019-05-28T18:49:01.017Z,10.10
2019-05-28T18:51:48.826Z,10.20
2019-05-28T18:54:37.020Z,10.30
2019-05-28T18:57:24.942Z,10.40
2019-05-28T19:00:14.909Z,10.50
2019-05-28T19:03:02.814Z,10.50
2019-05-28T19:05:50.659Z,10.40
2019-05-28T19:08:38.472Z,10.40
2019-05-28T19:11:37.268Z,10.50
2019-05-28T19:14:15.625Z,10.50
2019-05-28T19:17:03.448Z,10.50
2019-05-28T19:19:51.525Z,10.20
2019-05-28T19:22:39.504Z,10.10
2019-05-28T19:25:27.654Z,10.30
2019-05-28T19:28:15.191Z,10.30
2019-05-28T19:31:03.610Z,10.20
2019-05-28T19:33:51.329Z,10.10
2019-05-28T19:36:39.790Z,10.20
2019-05-28T19:39:28.251Z,10.20
2019-05-28T19:42:15.971Z,10.30
2019-05-28T19:45:04.198Z,10.30
2019-05-28T19:47:51.957Z,10.40
2019-05-28T19:50:40.182Z,10.40
2019-05-28T19:53:28.186Z,10.40
2019-05-28T19:56:15.777Z,10.40
2019-05-28T19:59:03.203Z,10.40
2019-05-28T20:01:51.488Z,10.50
2019-05-28T20:04:39.407Z,10.40
2019-05-28T20:07:27.586Z,10.40
2019-05-28T20:10:17.684Z,10.40
2019-05-28T20:13:05.763Z,10.40
2019-05-28T20:15:56.833Z,10.30
2019-05-28T20:18:42.949Z,10.30
2019-05-28T20:21:30.447Z,10.30
2019-05-28T20:24:17.630Z,10.20
2019-05-28T20:27:05.156Z,10.20
2019-05-28T20:29:52.917Z,10.20
2019-05-28T20:32:40.849Z,10.10
2019-05-28T20:35:31.087Z,10.10
2019-05-28T20:38:18.603Z,10.10
2019-05-28T20:41:06.261Z,10.20
2019-05-28T20:43:55.005Z,10.20
2019-05-28T20:46:42.794Z,10.10
2019-05-28T20:49:31.035Z,10.20
2019-05-28T20:52:19.011Z,10.10
2019-05-28T20:55:08.238Z,10.00
2019-05-28T20:57:55.648Z,9.90
2019-05-28T21:00:43.708Z,10.00
2019-05-28T21:03:31.764Z,10.10
2019-05-28T21:06:20.716Z,10.10
2019-05-28T21:09:08.773Z,10.10
2019-05-28T21:11:57.246Z,10.20
2019-05-28T21:14:45.443Z,10.20
2019-05-28T21:17:34.436Z,10.20
2019-05-28T21:20:29.422Z,10.20
2019-05-28T21:23:18.066Z,10.20
2019-05-28T21:26:07.432Z,10.20
2019-05-28T21:28:56.424Z,10.20
2019-05-28T21:31:44.544Z,10.20
2019-05-28T21:34:33.087Z,10.30
2019-05-28T21:37:20.521Z,10.30
2019-05-28T21:40:08.958Z,10.30
2019-05-28T21:43:04.720Z,10.10
2019-05-28T21:45:46.596Z,10.00
2019-05-28T21:48:34.436Z,10.00
2019-05-28T21:51:23.113Z,10.00
2019-05-28T21:54:11.504Z,9.90
2019-05-28T21:56:59.456Z,10.00
2019-05-28T21:59:50.182Z,9.90
2019-05-28T22:02:36.916Z,9.90
2019-05-28T22:05:25.022Z,10.00
2019-05-28T22:08:12.865Z,10.00
2019-05-28T22:11:01.800Z,10.00
2019-05-28T22:13:49.649Z,9.80
2019-05-28T22:16:37.460Z,9.70
2019-05-28T22:19:25.360Z,9.50
2019-05-28T22:22:13.138Z,9.30
2019-05-28T22:25:01.058Z,9.20
2019-05-28T22:27:48.811Z,9.20
2019-05-28T22:30:36.393Z,9.10
2019-05-28T22:33:24.471Z,9.10
2019-05-28T22:36:12.269Z,9.10
2019-05-28T22:39:07.151Z,9.00
2019-05-28T22:41:55.231Z,9.00
2019-05-28T22:44:43.263Z,9.00
2019-05-28T22:47:30.824Z,9.00
2019-05-28T22:50:22.839Z,9.00
2019-05-28T22:53:08.214Z,9.00
2019-05-28T22:55:55.687Z,9.00
2019-05-28T22:58:42.843Z,9.00
2019-05-28T23:01:30.635Z,9.00
2019-05-28T23:04:18.081Z,9.00
2019-05-28T23:07:05.523Z,9.10
2019-05-28T23:09:53.165Z,9.00
2019-05-28T23:12:40.537Z,9.10
2019-05-28T23:15:28.314Z,9.20
2019-05-28T23:18:16.378Z,9.30
2019-05-28T23:21:04.755Z,9.30
2019-05-28T23:23:52.818Z,9.30
2019-05-28T23:26:40.464Z,9.40
2019-05-28T23:29:28.113Z,9.40
2019-05-28T23:32:15.605Z,9.50
2019-05-28T23:35:04.293Z,9.50
2019-05-28T23:37:52.058Z,9.50
2019-05-28T23:40:39.777Z,9.50
2019-05-28T23:43:27.655Z,9.60
2019-05-28T23:46:15.657Z,9.50
2019-05-28T23:49:04.104Z,9.60
2019-05-28T23:51:52.109Z,9.70
2019-05-28T23:54:40.262Z,9.70
2019-05-28T23:57:28.088Z,9.70
